sensor_id;sensor_type;location;lat;lon;timestamp;temperature;humidity
30520;DHT22;17300;50.374;8.006;2023-04-03T00:01:54;9.30;51.60
30520;DHT22;17300;50.374;8.006;2023-04-03T00:04:21;9.30;51.60
30520;DHT22;17300;50.374;8.006;2023-04-03T00:06:47;9.30;51.60
30520;DHT22;17300;50.374;8.006;2023-04-03T00:09:15;9.30;51.60
30520;DHT22;17300;50.374;8.006;2023-04-03T00:11:42;9.30;51.60
30520;DHT22;17300;50.374;8.006;2023-04-03T00:14:09;9.30;51.60
30520;DHT22;17300;50.374;8.006;2023-04-03T00:16:35;9.30;51.60
30520;DHT22;17300;50.374;8.006;2023-04-03T00:19:02;9.40;51.70
30520;DHT22;17300;50.374;8.006;2023-04-03T00:21:29;9.40;51.70
30520;DHT22;17300;50.374;8.006;2023-04-03T00:23:55;9.40;51.70
30520;DHT22;17300;50.374;8.006;2023-04-03T00:26:23;9.40;51.70
30520;DHT22;17300;50.374;8.006;2023-04-03T00:28:50;9.40;51.70
30520;DHT22;17300;50.374;8.006;2023-04-03T00:31:17;9.40;51.70
30520;DHT22;17300;50.374;8.006;2023-04-03T00:33:44;9.40;51.70
30520;DHT22;17300;50.374;8.006;2023-04-03T00:36:11;9.40;51.70
30520;DHT22;17300;50.374;8.006;2023-04-03T00:38:38;9.40;51.70
30520;DHT22;17300;50.374;8.006;2023-04-03T00:41:06;9.40;51.80
30520;DHT22;17300;50.374;8.006;2023-04-03T00:43:34;9.40;51.80
30520;DHT22;17300;50.374;8.006;2023-04-03T00:46:00;9.40;51.80
30520;DHT22;17300;50.374;8.006;2023-04-03T00:48:30;9.40;51.70
30520;DHT22;17300;50.374;8.006;2023-04-03T00:50:57;9.40;51.70
30520;DHT22;17300;50.374;8.006;2023-04-03T00:53:26;9.40;51.70
30520;DHT22;17300;50.374;8.006;2023-04-03T00:55:54;9.40;51.70
30520;DHT22;17300;50.374;8.006;2023-04-03T00:58:25;9.40;51.70
30520;DHT22;17300;50.374;8.006;2023-04-03T01:00:56;9.40;51.70
30520;DHT22;17300;50.374;8.006;2023-04-03T01:03:24;9.40;51.70
30520;DHT22;17300;50.374;8.006;2023-04-03T01:05:51;9.40;51.70
30520;DHT22;17300;50.374;8.006;2023-04-03T01:08:18;9.40;51.70
30520;DHT22;17300;50.374;8.006;2023-04-03T01:10:45;9.40;51.70
30520;DHT22;17300;50.374;8.006;2023-04-03T01:13:21;9.40;51.70
30520;DHT22;17300;50.374;8.006;2023-04-03T01:15:48;9.40;51.60
30520;DHT22;17300;50.374;8.006;2023-04-03T01:18:16;9.30;51.40
30520;DHT22;17300;50.374;8.006;2023-04-03T01:23:47;9.30;51.60
30520;DHT22;17300;50.374;8.006;2023-04-03T01:26:17;9.40;51.70
30520;DHT22;17300;50.374;8.006;2023-04-03T01:28:44;9.40;51.70
30520;DHT22;17300;50.374;8.006;2023-04-03T01:31:18;9.40;51.70
30520;DHT22;17300;50.374;8.006;2023-04-03T01:33:48;9.30;51.60
30520;DHT22;17300;50.374;8.006;2023-04-03T01:36:17;9.30;51.50
30520;DHT22;17300;50.374;8.006;2023-04-03T01:38:44;9.40;51.60
30520;DHT22;17300;50.374;8.006;2023-04-03T01:41:11;9.30;51.50
30520;DHT22;17300;50.374;8.006;2023-04-03T01:43:37;9.40;51.60
30520;DHT22;17300;50.374;8.006;2023-04-03T01:46:04;9.30;51.60
30520;DHT22;17300;50.374;8.006;2023-04-03T01:48:31;9.30;51.60
30520;DHT22;17300;50.374;8.006;2023-04-03T01:50:59;9.30;51.70
30520;DHT22;17300;50.374;8.006;2023-04-03T01:53:25;9.30;51.80
30520;DHT22;17300;50.374;8.006;2023-04-03T01:55:52;9.30;51.90
30520;DHT22;17300;50.374;8.006;2023-04-03T01:58:19;9.30;51.90
30520;DHT22;17300;50.374;8.006;2023-04-03T02:00:45;9.30;51.90
30520;DHT22;17300;50.374;8.006;2023-04-03T02:03:12;9.30;51.80
30520;DHT22;17300;50.374;8.006;2023-04-03T02:05:38;9.30;51.80
30520;DHT22;17300;50.374;8.006;2023-04-03T02:08:06;9.30;51.80
30520;DHT22;17300;50.374;8.006;2023-04-03T02:10:33;9.30;51.90
30520;DHT22;17300;50.374;8.006;2023-04-03T02:13:00;9.30;51.80
30520;DHT22;17300;50.374;8.006;2023-04-03T02:15:26;9.20;51.70
30520;DHT22;17300;50.374;8.006;2023-04-03T02:17:53;9.20;51.80
30520;DHT22;17300;50.374;8.006;2023-04-03T02:20:20;9.20;51.80
30520;DHT22;17300;50.374;8.006;2023-04-03T02:22:47;9.20;51.90
30520;DHT22;17300;50.374;8.006;2023-04-03T02:25:15;9.20;52.00
30520;DHT22;17300;50.374;8.006;2023-04-03T02:27:43;9.20;52.00
30520;DHT22;17300;50.374;8.006;2023-04-03T02:30:10;9.20;52.10
30520;DHT22;17300;50.374;8.006;2023-04-03T02:32:37;9.20;52.20
30520;DHT22;17300;50.374;8.006;2023-04-03T02:35:04;9.20;52.20
30520;DHT22;17300;50.374;8.006;2023-04-03T02:37:31;9.20;52.20
30520;DHT22;17300;50.374;8.006;2023-04-03T02:39:58;9.20;52.20
30520;DHT22;17300;50.374;8.006;2023-04-03T02:42:26;9.20;52.10
30520;DHT22;17300;50.374;8.006;2023-04-03T02:44:52;9.10;52.00
30520;DHT22;17300;50.374;8.006;2023-04-03T02:47:19;9.10;51.90
30520;DHT22;17300;50.374;8.006;2023-04-03T02:49:46;9.10;51.90
30520;DHT22;17300;50.374;8.006;2023-04-03T02:52:12;9.10;52.50
30520;DHT22;17300;50.374;8.006;2023-04-03T02:54:39;9.00;51.90
30520;DHT22;17300;50.374;8.006;2023-04-03T02:57:06;9.00;52.00
30520;DHT22;17300;50.374;8.006;2023-04-03T02:59:35;8.90;51.90
30520;DHT22;17300;50.374;8.006;2023-04-03T03:02:02;8.90;52.00
30520;DHT22;17300;50.374;8.006;2023-04-03T03:04:28;8.80;52.10
30520;DHT22;17300;50.374;8.006;2023-04-03T03:06:55;8.80;52.20
30520;DHT22;17300;50.374;8.006;2023-04-03T03:09:22;8.80;52.20
30520;DHT22;17300;50.374;8.006;2023-04-03T03:11:49;8.70;52.20
30520;DHT22;17300;50.374;8.006;2023-04-03T03:14:15;8.70;52.40
30520;DHT22;17300;50.374;8.006;2023-04-03T03:16:44;8.70;52.70
30520;DHT22;17300;50.374;8.006;2023-04-03T03:19:11;8.60;52.60
30520;DHT22;17300;50.374;8.006;2023-04-03T03:21:37;8.60;52.60
30520;DHT22;17300;50.374;8.006;2023-04-03T03:24:04;8.60;52.60
30520;DHT22;17300;50.374;8.006;2023-04-03T03:26:31;8.60;52.60
30520;DHT22;17300;50.374;8.006;2023-04-03T03:28:58;8.50;52.50
30520;DHT22;17300;50.374;8.006;2023-04-03T03:31:25;8.50;52.50
30520;DHT22;17300;50.374;8.006;2023-04-03T03:33:53;8.40;52.50
30520;DHT22;17300;50.374;8.006;2023-04-03T03:36:19;8.40;52.60
30520;DHT22;17300;50.374;8.006;2023-04-03T03:38:46;8.40;52.50
30520;DHT22;17300;50.374;8.006;2023-04-03T03:41:13;8.30;52.50
30520;DHT22;17300;50.374;8.006;2023-04-03T03:43:39;8.30;52.70
30520;DHT22;17300;50.374;8.006;2023-04-03T03:46:06;8.30;52.70
30520;DHT22;17300;50.374;8.006;2023-04-03T03:48:33;8.20;52.70
30520;DHT22;17300;50.374;8.006;2023-04-03T03:51:01;8.10;53.30
30520;DHT22;17300;50.374;8.006;2023-04-03T03:53:27;8.10;52.80
30520;DHT22;17300;50.374;8.006;2023-04-03T03:55:54;8.10;52.70
30520;DHT22;17300;50.374;8.006;2023-04-03T03:58:20;8.00;52.60
30520;DHT22;17300;50.374;8.006;2023-04-03T04:00:47;8.00;52.60
30520;DHT22;17300;50.374;8.006;2023-04-03T04:03:14;7.90;52.50
30520;DHT22;17300;50.374;8.006;2023-04-03T04:05:40;7.90;52.60
30520;DHT22;17300;50.374;8.006;2023-04-03T04:08:08;7.90;52.60
30520;DHT22;17300;50.374;8.006;2023-04-03T04:10:35;7.80;52.50
30520;DHT22;17300;50.374;8.006;2023-04-03T04:13:03;7.70;52.50
30520;DHT22;17300;50.374;8.006;2023-04-03T04:15:30;7.60;52.50
30520;DHT22;17300;50.374;8.006;2023-04-03T04:17:57;7.60;52.50
30520;DHT22;17300;50.374;8.006;2023-04-03T04:20:23;7.50;52.50
30520;DHT22;17300;50.374;8.006;2023-04-03T04:22:50;7.50;52.50
30520;DHT22;17300;50.374;8.006;2023-04-03T04:25:18;7.40;52.50
30520;DHT22;17300;50.374;8.006;2023-04-03T04:27:45;7.30;52.50
30520;DHT22;17300;50.374;8.006;2023-04-03T04:30:12;7.20;52.50
30520;DHT22;17300;50.374;8.006;2023-04-03T04:32:39;7.10;52.40
30520;DHT22;17300;50.374;8.006;2023-04-03T04:35:06;7.10;52.40
30520;DHT22;17300;50.374;8.006;2023-04-03T04:37:33;7.00;52.40
30520;DHT22;17300;50.374;8.006;2023-04-03T04:40:00;7.00;52.50
30520;DHT22;17300;50.374;8.006;2023-04-03T04:42:28;6.90;52.60
30520;DHT22;17300;50.374;8.006;2023-04-03T04:44:55;6.80;52.50
30520;DHT22;17300;50.374;8.006;2023-04-03T04:47:21;6.80;52.50
30520;DHT22;17300;50.374;8.006;2023-04-03T04:49:48;6.70;52.50
30520;DHT22;17300;50.374;8.006;2023-04-03T04:52:15;6.70;52.60
30520;DHT22;17300;50.374;8.006;2023-04-03T04:54:42;6.60;52.60
30520;DHT22;17300;50.374;8.006;2023-04-03T04:57:08;6.60;52.60
30520;DHT22;17300;50.374;8.006;2023-04-03T04:59:37;6.50;52.50
30520;DHT22;17300;50.374;8.006;2023-04-03T05:02:04;6.50;52.50
30520;DHT22;17300;50.374;8.006;2023-04-03T05:04:30;6.50;52.60
30520;DHT22;17300;50.374;8.006;2023-04-03T05:06:58;6.40;52.50
30520;DHT22;17300;50.374;8.006;2023-04-03T05:09:25;6.40;52.60
30520;DHT22;17300;50.374;8.006;2023-04-03T05:11:52;6.40;52.60
30520;DHT22;17300;50.374;8.006;2023-04-03T05:14:18;6.40;52.60
30520;DHT22;17300;50.374;8.006;2023-04-03T05:16:46;6.30;52.50
30520;DHT22;17300;50.374;8.006;2023-04-03T05:19:14;6.30;52.60
30520;DHT22;17300;50.374;8.006;2023-04-03T05:21:40;6.30;52.60
30520;DHT22;17300;50.374;8.006;2023-04-03T05:24:07;6.30;52.60
30520;DHT22;17300;50.374;8.006;2023-04-03T05:26:35;6.20;52.50
30520;DHT22;17300;50.374;8.006;2023-04-03T05:29:03;6.20;52.60
30520;DHT22;17300;50.374;8.006;2023-04-03T05:31:30;6.30;52.70
30520;DHT22;17300;50.374;8.006;2023-04-03T05:33:58;6.20;52.60
30520;DHT22;17300;50.374;8.006;2023-04-03T05:36:25;6.30;52.80
30520;DHT22;17300;50.374;8.006;2023-04-03T05:38:52;6.30;52.90
30520;DHT22;17300;50.374;8.006;2023-04-03T05:41:21;6.30;52.90
30520;DHT22;17300;50.374;8.006;2023-04-03T05:43:48;6.30;53.00
30520;DHT22;17300;50.374;8.006;2023-04-03T05:46:17;6.30;53.10
30520;DHT22;17300;50.374;8.006;2023-04-03T05:48:44;6.30;53.20
30520;DHT22;17300;50.374;8.006;2023-04-03T05:51:15;6.30;53.20
30520;DHT22;17300;50.374;8.006;2023-04-03T05:53:43;6.40;53.40
30520;DHT22;17300;50.374;8.006;2023-04-03T05:56:11;6.40;53.30
30520;DHT22;17300;50.374;8.006;2023-04-03T05:58:37;6.40;53.30
30520;DHT22;17300;50.374;8.006;2023-04-03T06:01:04;6.50;53.30
30520;DHT22;17300;50.374;8.006;2023-04-03T06:03:31;6.50;53.30
30520;DHT22;17300;50.374;8.006;2023-04-03T06:05:58;6.50;53.40
30520;DHT22;17300;50.374;8.006;2023-04-03T06:08:26;6.60;53.50
30520;DHT22;17300;50.374;8.006;2023-04-03T06:10:53;6.60;53.50
30520;DHT22;17300;50.374;8.006;2023-04-03T06:13:20;6.60;53.50
30520;DHT22;17300;50.374;8.006;2023-04-03T06:15:47;6.70;53.60
30520;DHT22;17300;50.374;8.006;2023-04-03T06:18:14;6.70;53.50
30520;DHT22;17300;50.374;8.006;2023-04-03T06:20:40;6.80;53.60
30520;DHT22;17300;50.374;8.006;2023-04-03T06:23:07;6.80;53.60
30520;DHT22;17300;50.374;8.006;2023-04-03T06:25:35;6.90;53.70
30520;DHT22;17300;50.374;8.006;2023-04-03T06:28:02;6.90;53.70
30520;DHT22;17300;50.374;8.006;2023-04-03T06:30:28;7.10;54.00
30520;DHT22;17300;50.374;8.006;2023-04-03T06:32:55;7.10;54.10
30520;DHT22;17300;50.374;8.006;2023-04-03T06:35:22;7.30;55.10
30520;DHT22;17300;50.374;8.006;2023-04-03T06:37:49;7.70;57.40
30520;DHT22;17300;50.374;8.006;2023-04-03T06:40:21;8.30;59.80
30520;DHT22;17300;50.374;8.006;2023-04-03T06:42:49;9.10;62.40
30520;DHT22;17300;50.374;8.006;2023-04-03T06:45:17;10.10;63.80
30520;DHT22;17300;50.374;8.006;2023-04-03T06:47:43;11.20;65.60
30520;DHT22;17300;50.374;8.006;2023-04-03T06:50:11;12.40;66.10
30520;DHT22;17300;50.374;8.006;2023-04-03T06:52:39;13.70;65.50
30520;DHT22;17300;50.374;8.006;2023-04-03T06:55:07;14.90;63.60
30520;DHT22;17300;50.374;8.006;2023-04-03T06:57:34;16.20;62.00
30520;DHT22;17300;50.374;8.006;2023-04-03T07:00:04;17.30;60.40
30520;DHT22;17300;50.374;8.006;2023-04-03T07:02:31;18.30;58.80
30520;DHT22;17300;50.374;8.006;2023-04-03T07:04:58;19.40;58.30
30520;DHT22;17300;50.374;8.006;2023-04-03T07:07:24;20.40;57.30
30520;DHT22;17300;50.374;8.006;2023-04-03T07:09:51;21.20;55.70
30520;DHT22;17300;50.374;8.006;2023-04-03T07:12:18;22.10;54.50
30520;DHT22;17300;50.374;8.006;2023-04-03T07:14:44;22.90;53.40
30520;DHT22;17300;50.374;8.006;2023-04-03T07:17:12;23.60;52.10
30520;DHT22;17300;50.374;8.006;2023-04-03T07:19:39;24.30;50.30
30520;DHT22;17300;50.374;8.006;2023-04-03T07:22:06;24.90;49.60
30520;DHT22;17300;50.374;8.006;2023-04-03T07:24:33;25.30;48.50
30520;DHT22;17300;50.374;8.006;2023-04-03T07:27:00;25.80;47.80
30520;DHT22;17300;50.374;8.006;2023-04-03T07:29:27;26.40;47.00
30520;DHT22;17300;50.374;8.006;2023-04-03T07:31:55;26.90;46.00
30520;DHT22;17300;50.374;8.006;2023-04-03T07:34:23;27.20;44.40
30520;DHT22;17300;50.374;8.006;2023-04-03T07:36:50;27.50;42.60
30520;DHT22;17300;50.374;8.006;2023-04-03T07:39:17;27.80;42.80
30520;DHT22;17300;50.374;8.006;2023-04-03T07:41:44;27.90;41.90
30520;DHT22;17300;50.374;8.006;2023-04-03T07:44:11;28.20;41.60
30520;DHT22;17300;50.374;8.006;2023-04-03T07:46:37;28.40;41.10
30520;DHT22;17300;50.374;8.006;2023-04-03T07:49:04;28.70;40.70
30520;DHT22;17300;50.374;8.006;2023-04-03T07:51:33;29.00;40.30
30520;DHT22;17300;50.374;8.006;2023-04-03T07:54:03;29.10;38.50
30520;DHT22;17300;50.374;8.006;2023-04-03T07:56:38;29.30;37.90
30520;DHT22;17300;50.374;8.006;2023-04-03T07:59:05;29.20;37.10
30520;DHT22;17300;50.374;8.006;2023-04-03T08:01:32;29.00;36.30
30520;DHT22;17300;50.374;8.006;2023-04-03T08:03:59;28.70;34.50
30520;DHT22;17300;50.374;8.006;2023-04-03T08:06:25;28.40;34.30
30520;DHT22;17300;50.374;8.006;2023-04-03T08:08:53;28.20;35.40
30520;DHT22;17300;50.374;8.006;2023-04-03T08:11:21;28.10;36.60
30520;DHT22;17300;50.374;8.006;2023-04-03T08:13:49;28.30;38.10
30520;DHT22;17300;50.374;8.006;2023-04-03T08:16:17;28.70;38.70
30520;DHT22;17300;50.374;8.006;2023-04-03T08:18:44;29.30;38.20
30520;DHT22;17300;50.374;8.006;2023-04-03T08:21:12;29.90;37.00
30520;DHT22;17300;50.374;8.006;2023-04-03T08:23:39;30.40;36.40
30520;DHT22;17300;50.374;8.006;2023-04-03T08:26:09;30.80;34.50
30520;DHT22;17300;50.374;8.006;2023-04-03T08:28:36;31.20;33.40
30520;DHT22;17300;50.374;8.006;2023-04-03T08:31:04;31.40;33.00
30520;DHT22;17300;50.374;8.006;2023-04-03T08:33:32;31.60;32.20
30520;DHT22;17300;50.374;8.006;2023-04-03T08:36:01;31.70;31.40
30520;DHT22;17300;50.374;8.006;2023-04-03T08:38:28;31.80;31.70
30520;DHT22;17300;50.374;8.006;2023-04-03T08:41:11;32.10;31.90
30520;DHT22;17300;50.374;8.006;2023-04-03T08:43:52;32.30;30.50
30520;DHT22;17300;50.374;8.006;2023-04-03T08:46:23;32.80;30.60
30520;DHT22;17300;50.374;8.006;2023-04-03T08:48:53;33.20;30.60
30520;DHT22;17300;50.374;8.006;2023-04-03T08:51:22;33.60;30.40
30520;DHT22;17300;50.374;8.006;2023-04-03T08:53:55;34.00;29.80
30520;DHT22;17300;50.374;8.006;2023-04-03T08:56:24;34.20;28.80
30520;DHT22;17300;50.374;8.006;2023-04-03T08:58:56;34.40;28.90
30520;DHT22;17300;50.374;8.006;2023-04-03T09:01:26;34.60;27.40
30520;DHT22;17300;50.374;8.006;2023-04-03T09:03:53;34.70;27.80
30520;DHT22;17300;50.374;8.006;2023-04-03T09:06:22;34.80;28.00
30520;DHT22;17300;50.374;8.006;2023-04-03T09:08:53;35.00;27.90
30520;DHT22;17300;50.374;8.006;2023-04-03T09:11:26;35.20;27.60
30520;DHT22;17300;50.374;8.006;2023-04-03T09:13:59;35.40;27.40
30520;DHT22;17300;50.374;8.006;2023-04-03T09:16:36;35.70;27.10
30520;DHT22;17300;50.374;8.006;2023-04-03T09:19:15;36.00;26.60
30520;DHT22;17300;50.374;8.006;2023-04-03T09:21:44;36.50;26.40
30520;DHT22;17300;50.374;8.006;2023-04-03T09:24:12;36.80;26.80
30520;DHT22;17300;50.374;8.006;2023-04-03T09:26:44;37.10;26.00
30520;DHT22;17300;50.374;8.006;2023-04-03T09:29:17;37.20;25.10
30520;DHT22;17300;50.374;8.006;2023-04-03T09:31:46;37.10;24.60
30520;DHT22;17300;50.374;8.006;2023-04-03T09:34:19;37.10;25.10
30520;DHT22;17300;50.374;8.006;2023-04-03T09:36:49;37.00;24.40
30520;DHT22;17300;50.374;8.006;2023-04-03T09:39:18;36.90;24.50
30520;DHT22;17300;50.374;8.006;2023-04-03T09:41:58;36.70;24.50
30520;DHT22;17300;50.374;8.006;2023-04-03T09:44:26;36.50;23.60
30520;DHT22;17300;50.374;8.006;2023-04-03T09:46:53;36.40;24.20
30520;DHT22;17300;50.374;8.006;2023-04-03T09:49:20;36.30;24.40
30520;DHT22;17300;50.374;8.006;2023-04-03T09:51:46;36.00;23.90
30520;DHT22;17300;50.374;8.006;2023-04-03T09:54:35;35.70;23.20
30520;DHT22;17300;50.374;8.006;2023-04-03T09:57:09;35.30;22.70
30520;DHT22;17300;50.374;8.006;2023-04-03T09:59:42;35.00;23.40
30520;DHT22;17300;50.374;8.006;2023-04-03T10:02:30;34.80;23.40
30520;DHT22;17300;50.374;8.006;2023-04-03T10:04:58;34.70;23.40
30520;DHT22;17300;50.374;8.006;2023-04-03T10:07:31;34.50;23.50
30520;DHT22;17300;50.374;8.006;2023-04-03T10:10:00;34.20;22.90
30520;DHT22;17300;50.374;8.006;2023-04-03T10:12:29;34.00;23.10
30520;DHT22;17300;50.374;8.006;2023-04-03T10:14:58;33.70;23.40
30520;DHT22;17300;50.374;8.006;2023-04-03T10:17:34;33.40;23.70
30520;DHT22;17300;50.374;8.006;2023-04-03T10:20:09;33.30;23.50
30520;DHT22;17300;50.374;8.006;2023-04-03T10:22:44;33.30;23.60
30520;DHT22;17300;50.374;8.006;2023-04-03T10:25:17;33.30;23.50
30520;DHT22;17300;50.374;8.006;2023-04-03T10:27:53;33.20;23.20
30520;DHT22;17300;50.374;8.006;2023-04-03T10:30:32;33.00;23.00
30520;DHT22;17300;50.374;8.006;2023-04-03T10:33:16;32.70;23.20
30520;DHT22;17300;50.374;8.006;2023-04-03T10:35:53;32.60;23.30
30520;DHT22;17300;50.374;8.006;2023-04-03T10:38:31;32.50;23.90
30520;DHT22;17300;50.374;8.006;2023-04-03T10:41:03;32.60;24.20
30520;DHT22;17300;50.374;8.006;2023-04-03T10:43:40;32.80;24.10
30520;DHT22;17300;50.374;8.006;2023-04-03T10:46:13;32.90;23.60
30520;DHT22;17300;50.374;8.006;2023-04-03T10:48:52;32.90;22.90
30520;DHT22;17300;50.374;8.006;2023-04-03T10:51:27;32.70;22.30
30520;DHT22;17300;50.374;8.006;2023-04-03T10:53:58;32.50;22.20
30520;DHT22;17300;50.374;8.006;2023-04-03T10:56:31;32.20;22.50
30520;DHT22;17300;50.374;8.006;2023-04-03T10:59:10;31.90;22.40
30520;DHT22;17300;50.374;8.006;2023-04-03T11:01:42;31.70;22.50
30520;DHT22;17300;50.374;8.006;2023-04-03T11:04:11;31.30;22.70
30520;DHT22;17300;50.374;8.006;2023-04-03T11:06:42;31.00;22.60
30520;DHT22;17300;50.374;8.006;2023-04-03T11:09:18;30.70;22.00
30520;DHT22;17300;50.374;8.006;2023-04-03T11:11:47;30.40;21.50
30520;DHT22;17300;50.374;8.006;2023-04-03T11:14:22;30.00;21.50
30520;DHT22;17300;50.374;8.006;2023-04-03T11:16:59;29.40;21.00
30520;DHT22;17300;50.374;8.006;2023-04-03T11:19:35;28.90;21.30
30520;DHT22;17300;50.374;8.006;2023-04-03T11:22:09;28.40;21.40
30520;DHT22;17300;50.374;8.006;2023-04-03T11:24:40;28.00;21.30
30520;DHT22;17300;50.374;8.006;2023-04-03T11:27:15;27.50;21.60
30520;DHT22;17300;50.374;8.006;2023-04-03T11:29:45;27.10;21.70
30520;DHT22;17300;50.374;8.006;2023-04-03T11:32:31;26.70;21.60
30520;DHT22;17300;50.374;8.006;2023-04-03T11:35:02;26.20;21.20
30520;DHT22;17300;50.374;8.006;2023-04-03T11:37:33;25.80;21.60
30520;DHT22;17300;50.374;8.006;2023-04-03T11:40:04;25.30;21.50
30520;DHT22;17300;50.374;8.006;2023-04-03T11:42:36;24.90;21.20
30520;DHT22;17300;50.374;8.006;2023-04-03T11:45:33;24.50;21.90
30520;DHT22;17300;50.374;8.006;2023-04-03T11:48:04;24.00;22.20
30520;DHT22;17300;50.374;8.006;2023-04-03T11:50:43;23.60;21.80
30520;DHT22;17300;50.374;8.006;2023-04-03T11:53:28;23.20;21.10
30520;DHT22;17300;50.374;8.006;2023-04-03T11:56:00;22.70;21.30
30520;DHT22;17300;50.374;8.006;2023-04-03T11:58:29;22.40;21.70
30520;DHT22;17300;50.374;8.006;2023-04-03T12:01:06;22.00;21.80
30520;DHT22;17300;50.374;8.006;2023-04-03T12:07:01;21.40;21.60
30520;DHT22;17300;50.374;8.006;2023-04-03T12:09:54;21.10;22.10
30520;DHT22;17300;50.374;8.006;2023-04-03T12:12:33;20.90;22.10
30520;DHT22;17300;50.374;8.006;2023-04-03T12:15:41;20.60;22.00
30520;DHT22;17300;50.374;8.006;2023-04-03T12:21:19;20.10;22.50
30520;DHT22;17300;50.374;8.006;2023-04-03T12:23:59;19.90;22.60
30520;DHT22;17300;50.374;8.006;2023-04-03T12:26:27;19.70;22.60
30520;DHT22;17300;50.374;8.006;2023-04-03T12:28:56;19.60;22.60
30520;DHT22;17300;50.374;8.006;2023-04-03T12:31:25;19.40;22.60
30520;DHT22;17300;50.374;8.006;2023-04-03T12:34:19;19.30;22.80
30520;DHT22;17300;50.374;8.006;2023-04-03T12:37:00;19.10;22.60
30520;DHT22;17300;50.374;8.006;2023-04-03T12:39:50;18.80;23.00
30520;DHT22;17300;50.374;8.006;2023-04-03T12:42:32;18.70;23.20
30520;DHT22;17300;50.374;8.006;2023-04-03T12:45:13;18.50;23.50
30520;DHT22;17300;50.374;8.006;2023-04-03T12:47:43;18.30;23.10
30520;DHT22;17300;50.374;8.006;2023-04-03T12:50:19;18.20;23.30
30520;DHT22;17300;50.374;8.006;2023-04-03T12:52:54;18.10;23.40
30520;DHT22;17300;50.374;8.006;2023-04-03T12:55:22;18.00;23.10
30520;DHT22;17300;50.374;8.006;2023-04-03T12:57:49;17.90;23.10
30520;DHT22;17300;50.374;8.006;2023-04-03T13:00:21;17.80;23.30
30520;DHT22;17300;50.374;8.006;2023-04-03T13:02:48;17.60;23.80
30520;DHT22;17300;50.374;8.006;2023-04-03T13:05:17;17.50;23.90
30520;DHT22;17300;50.374;8.006;2023-04-03T13:07:48;17.40;23.60
30520;DHT22;17300;50.374;8.006;2023-04-03T13:10:18;17.40;24.10
30520;DHT22;17300;50.374;8.006;2023-04-03T13:12:47;17.30;24.10
30520;DHT22;17300;50.374;8.006;2023-04-03T13:15:16;17.30;24.50
30520;DHT22;17300;50.374;8.006;2023-04-03T13:17:44;17.30;24.30
30520;DHT22;17300;50.374;8.006;2023-04-03T13:20:13;17.20;24.20
30520;DHT22;17300;50.374;8.006;2023-04-03T13:22:46;17.20;24.20
30520;DHT22;17300;50.374;8.006;2023-04-03T13:25:16;17.20;24.20
30520;DHT22;17300;50.374;8.006;2023-04-03T13:27:44;17.10;24.30
30520;DHT22;17300;50.374;8.006;2023-04-03T13:30:25;17.00;24.60
30520;DHT22;17300;50.374;8.006;2023-04-03T13:32:52;17.00;24.80
30520;DHT22;17300;50.374;8.006;2023-04-03T13:35:32;17.00;24.90
30520;DHT22;17300;50.374;8.006;2023-04-03T13:38:01;17.00;24.40
30520;DHT22;17300;50.374;8.006;2023-04-03T13:40:29;16.90;24.20
30520;DHT22;17300;50.374;8.006;2023-04-03T13:43:02;16.80;24.40
30520;DHT22;17300;50.374;8.006;2023-04-03T13:45:30;16.70;24.70
30520;DHT22;17300;50.374;8.006;2023-04-03T13:48:11;16.60;24.90
30520;DHT22;17300;50.374;8.006;2023-04-03T13:50:53;16.50;24.50
30520;DHT22;17300;50.374;8.006;2023-04-03T13:53:20;16.40;24.70
30520;DHT22;17300;50.374;8.006;2023-04-03T13:56:06;16.40;24.60
30520;DHT22;17300;50.374;8.006;2023-04-03T13:58:34;16.30;24.80
30520;DHT22;17300;50.374;8.006;2023-04-03T14:01:08;16.20;25.60
30520;DHT22;17300;50.374;8.006;2023-04-03T14:03:41;16.10;25.20
30520;DHT22;17300;50.374;8.006;2023-04-03T14:06:11;16.10;25.40
30520;DHT22;17300;50.374;8.006;2023-04-03T14:08:38;16.10;25.20
30520;DHT22;17300;50.374;8.006;2023-04-03T14:11:11;16.10;25.10
30520;DHT22;17300;50.374;8.006;2023-04-03T14:13:39;16.00;25.00
30520;DHT22;17300;50.374;8.006;2023-04-03T14:16:06;16.00;25.00
30520;DHT22;17300;50.374;8.006;2023-04-03T14:18:33;16.00;25.30
30520;DHT22;17300;50.374;8.006;2023-04-03T14:20:59;15.90;25.20
30520;DHT22;17300;50.374;8.006;2023-04-03T14:23:26;15.80;25.10
30520;DHT22;17300;50.374;8.006;2023-04-03T14:25:53;15.80;25.70
30520;DHT22;17300;50.374;8.006;2023-04-03T14:28:22;15.80;25.20
30520;DHT22;17300;50.374;8.006;2023-04-03T14:30:50;15.70;25.10
30520;DHT22;17300;50.374;8.006;2023-04-03T14:33:19;15.70;25.50
30520;DHT22;17300;50.374;8.006;2023-04-03T14:35:47;15.60;25.70
30520;DHT22;17300;50.374;8.006;2023-04-03T14:38:23;15.60;25.70
30520;DHT22;17300;50.374;8.006;2023-04-03T14:40:51;15.60;25.50
30520;DHT22;17300;50.374;8.006;2023-04-03T14:43:18;15.60;25.80
30520;DHT22;17300;50.374;8.006;2023-04-03T14:45:47;15.50;25.90
30520;DHT22;17300;50.374;8.006;2023-04-03T14:48:17;15.50;25.90
30520;DHT22;17300;50.374;8.006;2023-04-03T14:50:45;15.50;26.00
30520;DHT22;17300;50.374;8.006;2023-04-03T14:53:13;15.50;26.10
30520;DHT22;17300;50.374;8.006;2023-04-03T14:55:43;15.40;26.20
30520;DHT22;17300;50.374;8.006;2023-04-03T14:58:13;15.40;26.20
30520;DHT22;17300;50.374;8.006;2023-04-03T15:00:41;15.40;26.10
30520;DHT22;17300;50.374;8.006;2023-04-03T15:03:13;15.30;26.10
30520;DHT22;17300;50.374;8.006;2023-04-03T15:05:40;15.30;26.20
30520;DHT22;17300;50.374;8.006;2023-04-03T15:08:19;15.20;26.10
30520;DHT22;17300;50.374;8.006;2023-04-03T15:10:47;15.20;26.10
30520;DHT22;17300;50.374;8.006;2023-04-03T15:13:15;15.10;26.10
30520;DHT22;17300;50.374;8.006;2023-04-03T15:15:42;15.10;26.30
30520;DHT22;17300;50.374;8.006;2023-04-03T15:18:15;15.00;26.00
30520;DHT22;17300;50.374;8.006;2023-04-03T15:20:43;15.00;25.80
30520;DHT22;17300;50.374;8.006;2023-04-03T15:23:11;14.90;25.80
30520;DHT22;17300;50.374;8.006;2023-04-03T15:25:38;14.80;25.70
30520;DHT22;17300;50.374;8.006;2023-04-03T15:28:06;14.80;25.90
30520;DHT22;17300;50.374;8.006;2023-04-03T15:30:37;14.60;25.80
30520;DHT22;17300;50.374;8.006;2023-04-03T15:33:08;14.60;26.10
30520;DHT22;17300;50.374;8.006;2023-04-03T15:35:36;14.50;26.10
30520;DHT22;17300;50.374;8.006;2023-04-03T15:38:03;14.40;26.10
30520;DHT22;17300;50.374;8.006;2023-04-03T15:40:29;14.40;26.20
30520;DHT22;17300;50.374;8.006;2023-04-03T15:42:56;14.30;26.10
30520;DHT22;17300;50.374;8.006;2023-04-03T15:45:24;14.20;26.20
30520;DHT22;17300;50.374;8.006;2023-04-03T15:47:52;14.20;26.20
30520;DHT22;17300;50.374;8.006;2023-04-03T15:50:22;14.10;26.30
30520;DHT22;17300;50.374;8.006;2023-04-03T15:52:51;14.00;26.60
30520;DHT22;17300;50.374;8.006;2023-04-03T15:55:20;14.00;26.60
30520;DHT22;17300;50.374;8.006;2023-04-03T15:57:46;13.90;26.50
30520;DHT22;17300;50.374;8.006;2023-04-03T16:00:13;13.90;26.60
30520;DHT22;17300;50.374;8.006;2023-04-03T16:02:41;13.80;26.60